sensor_id;sensor_type;location;lat;lon;timestamp;P1;durP1;ratioP1;P2;durP2;ratioP2
71646;SDS011;59706;45.634;11.704;2023-04-06T00:00:03;14.30;;;9.30;;
71646;SDS011;59706;45.634;11.704;2023-04-06T00:02:35;15.60;;;10.80;;
71646;SDS011;59706;45.634;11.704;2023-04-06T00:05:03;16.50;;;9.80;;
71646;SDS011;59706;45.634;11.704;2023-04-06T00:07:33;16.40;;;9.60;;
71646;SDS011;59706;45.634;11.704;2023-04-06T00:10:01;16.60;;;9.90;;
71646;SDS011;59706;45.634;11.704;2023-04-06T00:12:29;17.00;;;10.00;;
71646;SDS011;59706;45.634;11.704;2023-04-06T00:14:57;19.00;;;10.20;;
71646;SDS011;59706;45.634;11.704;2023-04-06T00:17:24;16.30;;;9.20;;
71646;SDS011;59706;45.634;11.704;2023-04-06T00:19:52;20.60;;;10.10;;
71646;SDS011;59706;45.634;11.704;2023-04-06T00:22:20;16.80;;;10.00;;
71646;SDS011;59706;45.634;11.704;2023-04-06T00:24:47;20.20;;;10.50;;
71646;SDS011;59706;45.634;11.704;2023-04-06T00:27:15;18.60;;;10.90;;
71646;SDS011;59706;45.634;11.704;2023-04-06T00:29:44;17.60;;;11.00;;
71646;SDS011;59706;45.634;11.704;2023-04-06T00:32:11;17.70;;;10.40;;
71646;SDS011;59706;45.634;11.704;2023-04-06T00:34:39;17.50;;;10.50;;
71646;SDS011;59706;45.634;11.704;2023-04-06T00:37:06;20.80;;;11.00;;
71646;SDS011;59706;45.634;11.704;2023-04-06T00:39:34;19.80;;;11.00;;
71646;SDS011;59706;45.634;11.704;2023-04-06T00:42:13;21.10;;;10.80;;
71646;SDS011;59706;45.634;11.704;2023-04-06T00:45:01;19.50;;;12.10;;
71646;SDS011;59706;45.634;11.704;2023-04-06T00:47:29;22.20;;;12.00;;
71646;SDS011;59706;45.634;11.704;2023-04-06T00:49:56;19.50;;;12.10;;
71646;SDS011;59706;45.634;11.704;2023-04-06T00:52:24;17.60;;;10.90;;
71646;SDS011;59706;45.634;11.704;2023-04-06T00:54:51;17.20;;;10.20;;
71646;SDS011;59706;45.634;11.704;2023-04-06T00:57:19;17.00;;;10.10;;
71646;SDS011;59706;45.634;11.704;2023-04-06T00:59:46;18.60;;;10.50;;
71646;SDS011;59706;45.634;11.704;2023-04-06T01:02:12;17.90;;;10.60;;
71646;SDS011;59706;45.634;11.704;2023-04-06T01:04:40;19.00;;;10.50;;
71646;SDS011;59706;45.634;11.704;2023-04-06T01:07:08;19.60;;;11.10;;
71646;SDS011;59706;45.634;11.704;2023-04-06T01:09:36;19.80;;;10.90;;
71646;SDS011;59706;45.634;11.704;2023-04-06T01:12:06;17.80;;;10.40;;
71646;SDS011;59706;45.634;11.704;2023-04-06T01:14:34;18.60;;;10.10;;
71646;SDS011;59706;45.634;11.704;2023-04-06T01:17:02;17.40;;;10.90;;
71646;SDS011;59706;45.634;11.704;2023-04-06T01:19:30;18.30;;;10.50;;
71646;SDS011;59706;45.634;11.704;2023-04-06T01:21:57;16.90;;;10.40;;
71646;SDS011;59706;45.634;11.704;2023-04-06T01:24:25;19.50;;;11.40;;
71646;SDS011;59706;45.634;11.704;2023-04-06T01:26:52;18.00;;;10.70;;
71646;SDS011;59706;45.634;11.704;2023-04-06T01:29:20;20.20;;;11.10;;
71646;SDS011;59706;45.634;11.704;2023-04-06T01:31:48;17.20;;;10.50;;
71646;SDS011;59706;45.634;11.704;2023-04-06T01:34:18;18.40;;;10.90;;
71646;SDS011;59706;45.634;11.704;2023-04-06T01:36:46;19.70;;;11.90;;
71646;SDS011;59706;45.634;11.704;2023-04-06T01:39:13;18.00;;;11.50;;
71646;SDS011;59706;45.634;11.704;2023-04-06T01:41:40;18.20;;;11.50;;
71646;SDS011;59706;45.634;11.704;2023-04-06T01:44:08;21.90;;;11.30;;
71646;SDS011;59706;45.634;11.704;2023-04-06T01:46:36;17.30;;;10.60;;
71646;SDS011;59706;45.634;11.704;2023-04-06T01:49:04;22.40;;;11.60;;
71646;SDS011;59706;45.634;11.704;2023-04-06T01:51:32;20.30;;;11.60;;
71646;SDS011;59706;45.634;11.704;2023-04-06T01:53:59;20.00;;;11.90;;
71646;SDS011;59706;45.634;11.704;2023-04-06T01:56:27;20.40;;;11.30;;
71646;SDS011;59706;45.634;11.704;2023-04-06T01:58:55;19.40;;;11.20;;
71646;SDS011;59706;45.634;11.704;2023-04-06T02:01:23;19.70;;;11.00;;
71646;SDS011;59706;45.634;11.704;2023-04-06T02:03:51;18.50;;;10.90;;
71646;SDS011;59706;45.634;11.704;2023-04-06T02:06:19;19.00;;;11.40;;
71646;SDS011;59706;45.634;11.704;2023-04-06T02:08:46;18.60;;;10.70;;
71646;SDS011;59706;45.634;11.704;2023-04-06T02:11:13;20.50;;;10.80;;
71646;SDS011;59706;45.634;11.704;2023-04-06T02:13:41;19.40;;;10.90;;
71646;SDS011;59706;45.634;11.704;2023-04-06T02:16:08;18.60;;;11.30;;
71646;SDS011;59706;45.634;11.704;2023-04-06T02:18:36;20.40;;;10.90;;
71646;SDS011;59706;45.634;11.704;2023-04-06T02:21:04;16.80;;;10.20;;
71646;SDS011;59706;45.634;11.704;2023-04-06T02:23:32;18.00;;;10.90;;
71646;SDS011;59706;45.634;11.704;2023-04-06T02:25:59;17.80;;;10.30;;
71646;SDS011;59706;45.634;11.704;2023-04-06T02:28:26;18.80;;;10.10;;
71646;SDS011;59706;45.634;11.704;2023-04-06T02:30:54;17.20;;;10.30;;
71646;SDS011;59706;45.634;11.704;2023-04-06T02:33:22;17.50;;;10.70;;
71646;SDS011;59706;45.634;11.704;2023-04-06T02:35:49;15.40;;;9.20;;
71646;SDS011;59706;45.634;11.704;2023-04-06T02:38:17;15.60;;;9.20;;
71646;SDS011;59706;45.634;11.704;2023-04-06T02:40:45;15.10;;;9.50;;
71646;SDS011;59706;45.634;11.704;2023-04-06T02:43:13;17.80;;;9.90;;
71646;SDS011;59706;45.634;11.704;2023-04-06T02:45:42;16.30;;;9.40;;
71646;SDS011;59706;45.634;11.704;2023-04-06T02:48:10;16.40;;;9.30;;
71646;SDS011;59706;45.634;11.704;2023-04-06T02:50:37;18.10;;;10.30;;
71646;SDS011;59706;45.634;11.704;2023-04-06T02:53:05;18.40;;;10.00;;
71646;SDS011;59706;45.634;11.704;2023-04-06T02:55:32;16.00;;;9.80;;
71646;SDS011;59706;45.634;11.704;2023-04-06T02:58:00;19.10;;;10.00;;
71646;SDS011;59706;45.634;11.704;2023-04-06T03:00:28;16.10;;;9.60;;
71646;SDS011;59706;45.634;11.704;2023-04-06T03:02:55;17.40;;;9.90;;
71646;SDS011;59706;45.634;11.704;2023-04-06T03:05:23;17.70;;;9.40;;
71646;SDS011;59706;45.634;11.704;2023-04-06T03:07:51;17.30;;;10.10;;
71646;SDS011;59706;45.634;11.704;2023-04-06T03:10:18;17.80;;;9.40;;
71646;SDS011;59706;45.634;11.704;2023-04-06T03:12:46;16.40;;;10.20;;
71646;SDS011;59706;45.634;11.704;2023-04-06T03:15:14;15.80;;;8.70;;
71646;SDS011;59706;45.634;11.704;2023-04-06T03:17:42;15.60;;;8.70;;
71646;SDS011;59706;45.634;11.704;2023-04-06T03:20:12;17.10;;;9.60;;
71646;SDS011;59706;45.634;11.704;2023-04-06T03:22:39;17.30;;;10.30;;
71646;SDS011;59706;45.634;11.704;2023-04-06T03:25:07;16.20;;;8.90;;
71646;SDS011;59706;45.634;11.704;2023-04-06T03:27:36;17.20;;;8.80;;
71646;SDS011;59706;45.634;11.704;2023-04-06T03:30:04;14.70;;;8.90;;
71646;SDS011;59706;45.634;11.704;2023-04-06T03:32:35;16.40;;;9.40;;
71646;SDS011;59706;45.634;11.704;2023-04-06T03:35:02;14.10;;;8.80;;
71646;SDS011;59706;45.634;11.704;2023-04-06T03:37:32;17.00;;;9.70;;
71646;SDS011;59706;45.634;11.704;2023-04-06T03:39:59;17.70;;;9.00;;
71646;SDS011;59706;45.634;11.704;2023-04-06T03:42:26;18.40;;;9.80;;
71646;SDS011;59706;45.634;11.704;2023-04-06T03:44:53;16.80;;;9.50;;
71646;SDS011;59706;45.634;11.704;2023-04-06T03:47:22;15.70;;;9.30;;
71646;SDS011;59706;45.634;11.704;2023-04-06T03:49:50;18.70;;;9.90;;
71646;SDS011;59706;45.634;11.704;2023-04-06T03:52:17;20.80;;;10.90;;
71646;SDS011;59706;45.634;11.704;2023-04-06T03:54:45;21.30;;;11.20;;
71646;SDS011;59706;45.634;11.704;2023-04-06T03:57:13;19.30;;;11.20;;
71646;SDS011;59706;45.634;11.704;2023-04-06T03:59:40;22.10;;;12.40;;
71646;SDS011;59706;45.634;11.704;2023-04-06T04:02:08;24.60;;;12.90;;
71646;SDS011;59706;45.634;11.704;2023-04-06T04:04:36;26.40;;;14.00;;
71646;SDS011;59706;45.634;11.704;2023-04-06T04:07:04;32.70;;;16.20;;
71646;SDS011;59706;45.634;11.704;2023-04-06T04:09:31;33.60;;;17.70;;
71646;SDS011;59706;45.634;11.704;2023-04-06T04:11:59;39.00;;;19.00;;
71646;SDS011;59706;45.634;11.704;2023-04-06T04:14:27;33.90;;;17.20;;
71646;SDS011;59706;45.634;11.704;2023-04-06T04:16:55;29.90;;;15.10;;
71646;SDS011;59706;45.634;11.704;2023-04-06T04:19:23;31.30;;;16.00;;
71646;SDS011;59706;45.634;11.704;2023-04-06T04:21:51;29.80;;;15.70;;
71646;SDS011;59706;45.634;11.704;2023-04-06T04:24:19;31.60;;;15.00;;
71646;SDS011;59706;45.634;11.704;2023-04-06T04:26:46;27.90;;;15.00;;
71646;SDS011;59706;45.634;11.704;2023-04-06T04:29:14;28.10;;;13.90;;
71646;SDS011;59706;45.634;11.704;2023-04-06T04:31:41;30.20;;;14.10;;
71646;SDS011;59706;45.634;11.704;2023-04-06T04:34:09;27.90;;;14.30;;
71646;SDS011;59706;45.634;11.704;2023-04-06T04:36:37;26.60;;;13.90;;
71646;SDS011;59706;45.634;11.704;2023-04-06T04:39:07;19.60;;;11.00;;
71646;SDS011;59706;45.634;11.704;2023-04-06T04:41:35;22.40;;;12.20;;
71646;SDS011;59706;45.634;11.704;2023-04-06T04:44:03;23.90;;;11.10;;
71646;SDS011;59706;45.634;11.704;2023-04-06T04:46:31;21.00;;;11.60;;
71646;SDS011;59706;45.634;11.704;2023-04-06T04:48:59;35.10;;;11.90;;
71646;SDS011;59706;45.634;11.704;2023-04-06T04:51:27;29.50;;;11.80;;
71646;SDS011;59706;45.634;11.704;2023-04-06T04:53:55;46.30;;;12.50;;
71646;SDS011;59706;45.634;11.704;2023-04-06T04:56:22;47.60;;;15.80;;
71646;SDS011;59706;45.634;11.704;2023-04-06T04:58:50;45.20;;;15.00;;
71646;SDS011;59706;45.634;11.704;2023-04-06T05:01:18;29.30;;;13.60;;
71646;SDS011;59706;45.634;11.704;2023-04-06T05:03:47;33.10;;;12.60;;
71646;SDS011;59706;45.634;11.704;2023-04-06T05:06:14;27.30;;;12.50;;
71646;SDS011;59706;45.634;11.704;2023-04-06T05:08:42;26.30;;;12.10;;
71646;SDS011;59706;45.634;11.704;2023-04-06T05:11:09;31.10;;;12.90;;
71646;SDS011;59706;45.634;11.704;2023-04-06T05:13:37;25.60;;;10.70;;
71646;SDS011;59706;45.634;11.704;2023-04-06T05:16:05;23.50;;;11.00;;
71646;SDS011;59706;45.634;11.704;2023-04-06T05:18:33;21.10;;;10.50;;
71646;SDS011;59706;45.634;11.704;2023-04-06T05:21:01;23.40;;;11.20;;
71646;SDS011;59706;45.634;11.704;2023-04-06T05:23:28;21.20;;;10.90;;
71646;SDS011;59706;45.634;11.704;2023-04-06T05:25:56;20.20;;;11.30;;
71646;SDS011;59706;45.634;11.704;2023-04-06T05:28:23;23.70;;;11.00;;
71646;SDS011;59706;45.634;11.704;2023-04-06T05:30:50;20.70;;;10.80;;
71646;SDS011;59706;45.634;11.704;2023-04-06T05:33:17;21.30;;;10.10;;
71646;SDS011;59706;45.634;11.704;2023-04-06T05:35:45;22.40;;;10.40;;
71646;SDS011;59706;45.634;11.704;2023-04-06T05:38:13;22.30;;;10.60;;
71646;SDS011;59706;45.634;11.704;2023-04-06T05:40:41;17.40;;;9.70;;
71646;SDS011;59706;45.634;11.704;2023-04-06T05:43:09;20.70;;;10.00;;
71646;SDS011;59706;45.634;11.704;2023-04-06T05:45:37;19.90;;;10.90;;
71646;SDS011;59706;45.634;11.704;2023-04-06T05:48:04;18.50;;;10.50;;
71646;SDS011;59706;45.634;11.704;2023-04-06T05:50:34;17.20;;;9.60;;
71646;SDS011;59706;45.634;11.704;2023-04-06T05:53:02;16.90;;;9.30;;
71646;SDS011;59706;45.634;11.704;2023-04-06T05:55:29;17.70;;;8.70;;
71646;SDS011;59706;45.634;11.704;2023-04-06T05:57:57;17.50;;;8.40;;
71646;SDS011;59706;45.634;11.704;2023-04-06T06:00:24;17.80;;;8.50;;
71646;SDS011;59706;45.634;11.704;2023-04-06T06:02:52;14.90;;;7.30;;
71646;SDS011;59706;45.634;11.704;2023-04-06T06:05:19;15.00;;;8.30;;
71646;SDS011;59706;45.634;11.704;2023-04-06T06:07:47;15.30;;;8.60;;
71646;SDS011;59706;45.634;11.704;2023-04-06T06:10:14;16.90;;;8.80;;
71646;SDS011;59706;45.634;11.704;2023-04-06T06:12:42;15.50;;;7.80;;
71646;SDS011;59706;45.634;11.704;2023-04-06T06:15:12;18.10;;;9.10;;
71646;SDS011;59706;45.634;11.704;2023-04-06T06:17:40;14.80;;;8.10;;
71646;SDS011;59706;45.634;11.704;2023-04-06T06:20:10;19.90;;;9.10;;
71646;SDS011;59706;45.634;11.704;2023-04-06T06:22:39;15.80;;;8.70;;
71646;SDS011;59706;45.634;11.704;2023-04-06T06:25:07;16.70;;;7.90;;
71646;SDS011;59706;45.634;11.704;2023-04-06T06:27:35;18.30;;;8.50;;
71646;SDS011;59706;45.634;11.704;2023-04-06T06:30:07;16.70;;;9.10;;
71646;SDS011;59706;45.634;11.704;2023-04-06T06:32:36;15.60;;;7.50;;
71646;SDS011;59706;45.634;11.704;2023-04-06T06:35:04;19.20;;;8.50;;
71646;SDS011;59706;45.634;11.704;2023-04-06T06:37:34;19.20;;;8.70;;
71646;SDS011;59706;45.634;11.704;2023-04-06T06:40:02;16.80;;;9.40;;
71646;SDS011;59706;45.634;11.704;2023-04-06T06:42:33;17.10;;;8.20;;
71646;SDS011;59706;45.634;11.704;2023-04-06T06:45:00;16.10;;;7.40;;
71646;SDS011;59706;45.634;11.704;2023-04-06T06:47:27;14.60;;;7.20;;
71646;SDS011;59706;45.634;11.704;2023-04-06T06:49:55;12.50;;;6.70;;
71646;SDS011;59706;45.634;11.704;2023-04-06T06:52:23;13.70;;;6.70;;
71646;SDS011;59706;45.634;11.704;2023-04-06T06:54:51;12.00;;;6.40;;
71646;SDS011;59706;45.634;11.704;2023-04-06T06:57:18;12.40;;;6.10;;
71646;SDS011;59706;45.634;11.704;2023-04-06T06:59:47;13.00;;;6.10;;
71646;SDS011;59706;45.634;11.704;2023-04-06T07:02:16;13.50;;;6.70;;
71646;SDS011;59706;45.634;11.704;2023-04-06T07:04:47;14.30;;;6.40;;
71646;SDS011;59706;45.634;11.704;2023-04-06T07:07:15;14.10;;;6.10;;
71646;SDS011;59706;45.634;11.704;2023-04-06T07:09:43;13.40;;;6.90;;
71646;SDS011;59706;45.634;11.704;2023-04-06T07:12:11;16.90;;;6.40;;
71646;SDS011;59706;45.634;11.704;2023-04-06T07:14:38;12.00;;;7.10;;
71646;SDS011;59706;45.634;11.704;2023-04-06T07:17:07;10.80;;;5.70;;
71646;SDS011;59706;45.634;11.704;2023-04-06T07:19:36;10.60;;;5.70;;
71646;SDS011;59706;45.634;11.704;2023-04-06T07:22:04;10.60;;;5.40;;
71646;SDS011;59706;45.634;11.704;2023-04-06T07:24:32;13.00;;;5.50;;
71646;SDS011;59706;45.634;11.704;2023-04-06T07:27:00;10.00;;;5.10;;
71646;SDS011;59706;45.634;11.704;2023-04-06T07:29:28;12.20;;;5.40;;
71646;SDS011;59706;45.634;11.704;2023-04-06T07:31:56;10.80;;;5.20;;
71646;SDS011;59706;45.634;11.704;2023-04-06T07:34:24;10.60;;;5.30;;
71646;SDS011;59706;45.634;11.704;2023-04-06T07:36:52;13.30;;;5.40;;
71646;SDS011;59706;45.634;11.704;2023-04-06T07:39:20;11.10;;;5.50;;
71646;SDS011;59706;45.634;11.704;2023-04-06T07:41:48;10.00;;;4.50;;
71646;SDS011;59706;45.634;11.704;2023-04-06T07:44:15;11.20;;;5.40;;
71646;SDS011;59706;45.634;11.704;2023-04-06T07:46:43;11.80;;;6.50;;
71646;SDS011;59706;45.634;11.704;2023-04-06T07:49:10;10.50;;;5.50;;
71646;SDS011;59706;45.634;11.704;2023-04-06T07:51:38;10.40;;;5.40;;
71646;SDS011;59706;45.634;11.704;2023-04-06T07:54:06;10.00;;;5.00;;
71646;SDS011;59706;45.634;11.704;2023-04-06T07:56:34;10.20;;;4.40;;
71646;SDS011;59706;45.634;11.704;2023-04-06T07:59:01;12.00;;;4.30;;
71646;SDS011;59706;45.634;11.704;2023-04-06T08:01:30;8.50;;;3.40;;
71646;SDS011;59706;45.634;11.704;2023-04-06T08:03:57;10.90;;;5.00;;
71646;SDS011;59706;45.634;11.704;2023-04-06T08:06:27;9.80;;;4.40;;
71646;SDS011;59706;45.634;11.704;2023-04-06T08:08:54;8.90;;;4.20;;
71646;SDS011;59706;45.634;11.704;2023-04-06T08:11:22;8.30;;;3.90;;
71646;SDS011;59706;45.634;11.704;2023-04-06T08:13:50;9.20;;;4.10;;
71646;SDS011;59706;45.634;11.704;2023-04-06T08:16:18;11.00;;;4.20;;
71646;SDS011;59706;45.634;11.704;2023-04-06T08:18:46;14.00;;;4.60;;
71646;SDS011;59706;45.634;11.704;2023-04-06T08:21:14;8.60;;;3.70;;
71646;SDS011;59706;45.634;11.704;2023-04-06T08:23:41;9.40;;;3.80;;
71646;SDS011;59706;45.634;11.704;2023-04-06T08:26:09;9.60;;;4.00;;
71646;SDS011;59706;45.634;11.704;2023-04-06T08:28:59;9.40;;;3.70;;
71646;SDS011;59706;45.634;11.704;2023-04-06T08:31:26;9.80;;;3.40;;
71646;SDS011;59706;45.634;11.704;2023-04-06T08:33:54;8.00;;;3.60;;
71646;SDS011;59706;45.634;11.704;2023-04-06T08:36:22;10.40;;;3.60;;
71646;SDS011;59706;45.634;11.704;2023-04-06T08:38:50;9.30;;;3.80;;
71646;SDS011;59706;45.634;11.704;2023-04-06T08:41:18;10.00;;;4.30;;
71646;SDS011;59706;45.634;11.704;2023-04-06T08:44:02;10.50;;;3.60;;
71646;SDS011;59706;45.634;11.704;2023-04-06T08:46:29;9.00;;;3.20;;
71646;SDS011;59706;45.634;11.704;2023-04-06T08:49:02;9.50;;;3.70;;
71646;SDS011;59706;45.634;11.704;2023-04-06T08:51:34;9.00;;;3.30;;
71646;SDS011;59706;45.634;11.704;2023-04-06T08:54:03;7.60;;;3.00;;
71646;SDS011;59706;45.634;11.704;2023-04-06T08:56:31;9.20;;;3.80;;
71646;SDS011;59706;45.634;11.704;2023-04-06T08:58:58;8.50;;;3.30;;
71646;SDS011;59706;45.634;11.704;2023-04-06T09:01:28;8.70;;;3.40;;
71646;SDS011;59706;45.634;11.704;2023-04-06T09:03:57;8.60;;;3.30;;
71646;SDS011;59706;45.634;11.704;2023-04-06T09:06:26;11.10;;;3.80;;
71646;SDS011;59706;45.634;11.704;2023-04-06T09:08:54;7.70;;;3.10;;
71646;SDS011;59706;45.634;11.704;2023-04-06T09:11:23;10.00;;;3.50;;
71646;SDS011;59706;45.634;11.704;2023-04-06T09:13:52;8.90;;;4.00;;
71646;SDS011;59706;45.634;11.704;2023-04-06T09:16:23;9.80;;;4.40;;
71646;SDS011;59706;45.634;11.704;2023-04-06T09:18:51;9.80;;;3.40;;
71646;SDS011;59706;45.634;11.704;2023-04-06T09:21:19;9.20;;;3.90;;
71646;SDS011;59706;45.634;11.704;2023-04-06T09:23:47;9.10;;;3.70;;
71646;SDS011;59706;45.634;11.704;2023-04-06T09:26:28;9.40;;;4.10;;
71646;SDS011;59706;45.634;11.704;2023-04-06T09:28:57;9.70;;;4.00;;
71646;SDS011;59706;45.634;11.704;2023-04-06T09:31:52;8.70;;;4.00;;
71646;SDS011;59706;45.634;11.704;2023-04-06T09:34:27;9.00;;;3.80;;
71646;SDS011;59706;45.634;11.704;2023-04-06T09:36:55;10.60;;;3.70;;
71646;SDS011;59706;45.634;11.704;2023-04-06T09:39:24;10.30;;;4.80;;
71646;SDS011;59706;45.634;11.704;2023-04-06T09:41:52;8.50;;;4.00;;
71646;SDS011;59706;45.634;11.704;2023-04-06T09:44:22;10.10;;;4.60;;
71646;SDS011;59706;45.634;11.704;2023-04-06T09:46:50;8.50;;;3.30;;
71646;SDS011;59706;45.634;11.704;2023-04-06T09:49:20;9.70;;;4.20;;
71646;SDS011;59706;45.634;11.704;2023-04-06T09:51:58;10.90;;;3.90;;
71646;SDS011;59706;45.634;11.704;2023-04-06T09:54:30;8.40;;;4.30;;
71646;SDS011;59706;45.634;11.704;2023-04-06T10:00:01;9.20;;;4.80;;
71646;SDS011;59706;45.634;11.704;2023-04-06T10:02:51;8.80;;;4.30;;
71646;SDS011;59706;45.634;11.704;2023-04-06T10:08:10;12.10;;;4.50;;
71646;SDS011;59706;45.634;11.704;2023-04-06T10:10:37;10.50;;;4.40;;
71646;SDS011;59706;45.634;11.704;2023-04-06T10:13:05;9.90;;;4.60;;
71646;SDS011;59706;45.634;11.704;2023-04-06T10:15:31;9.70;;;4.60;;
71646;SDS011;59706;45.634;11.704;2023-04-06T10:17:58;11.00;;;4.80;;
71646;SDS011;59706;45.634;11.704;2023-04-06T10:20:28;11.20;;;4.90;;
71646;SDS011;59706;45.634;11.704;2023-04-06T10:23:10;11.60;;;5.20;;
71646;SDS011;59706;45.634;11.704;2023-04-06T10:25:55;10.20;;;4.80;;
71646;SDS011;59706;45.634;11.704;2023-04-06T10:28:24;9.50;;;4.30;;
71646;SDS011;59706;45.634;11.704;2023-04-06T10:31:05;9.70;;;4.80;;
71646;SDS011;59706;45.634;11.704;2023-04-06T10:33:34;8.40;;;3.90;;
71646;SDS011;59706;45.634;11.704;2023-04-06T10:36:21;11.10;;;5.70;;
71646;SDS011;59706;45.634;11.704;2023-04-06T10:38:55;10.50;;;5.20;;
71646;SDS011;59706;45.634;11.704;2023-04-06T10:41:41;10.10;;;5.20;;
71646;SDS011;59706;45.634;11.704;2023-04-06T10:44:19;11.10;;;5.60;;
71646;SDS011;59706;45.634;11.704;2023-04-06T10:46:55;11.10;;;6.10;;
71646;SDS011;59706;45.634;11.704;2023-04-06T10:49:26;11.90;;;6.20;;
71646;SDS011;59706;45.634;11.704;2023-04-06T10:51:54;10.20;;;6.10;;
71646;SDS011;59706;45.634;11.704;2023-04-06T10:54:21;10.90;;;6.00;;
71646;SDS011;59706;45.634;11.704;2023-04-06T10:56:51;11.80;;;4.90;;
71646;SDS011;59706;45.634;11.704;2023-04-06T10:59:42;10.60;;;5.00;;
71646;SDS011;59706;45.634;11.704;2023-04-06T11:02:19;10.50;;;5.10;;
71646;SDS011;59706;45.634;11.704;2023-04-06T11:05:16;11.60;;;5.70;;
71646;SDS011;59706;45.634;11.704;2023-04-06T11:07:44;10.10;;;5.40;;
71646;SDS011;59706;45.634;11.704;2023-04-06T11:10:12;11.10;;;6.00;;
71646;SDS011;59706;45.634;11.704;2023-04-06T11:12:53;10.30;;;4.90;;
71646;SDS011;59706;45.634;11.704;2023-04-06T11:15:22;11.20;;;6.00;;
71646;SDS011;59706;45.634;11.704;2023-04-06T11:17:49;11.60;;;6.20;;
71646;SDS011;59706;45.634;11.704;2023-04-06T11:20:17;10.70;;;5.40;;
71646;SDS011;59706;45.634;11.704;2023-04-06T11:22:51;11.20;;;6.10;;
71646;SDS011;59706;45.634;11.704;2023-04-06T11:25:18;11.70;;;6.00;;
71646;SDS011;59706;45.634;11.704;2023-04-06T11:27:46;10.90;;;5.90;;
71646;SDS011;59706;45.634;11.704;2023-04-06T11:30:14;12.30;;;6.50;;
71646;SDS011;59706;45.634;11.704;2023-04-06T11:32:42;11.50;;;6.40;;
71646;SDS011;59706;45.634;11.704;2023-04-06T11:35:23;12.90;;;5.60;;
71646;SDS011;59706;45.634;11.704;2023-04-06T11:37:50;12.00;;;6.50;;
71646;SDS011;59706;45.634;11.704;2023-04-06T11:40:22;13.90;;;7.20;;
71646;SDS011;59706;45.634;11.704;2023-04-06T11:42:55;11.50;;;5.50;;
71646;SDS011;59706;45.634;11.704;2023-04-06T11:45:23;13.40;;;6.70;;
71646;SDS011;59706;45.634;11.704;2023-04-06T11:47:59;10.80;;;5.40;;
71646;SDS011;59706;45.634;11.704;2023-04-06T11:50:32;12.80;;;6.70;;
71646;SDS011;59706;45.634;11.704;2023-04-06T11:53:01;12.10;;;7.00;;
71646;SDS011;59706;45.634;11.704;2023-04-06T11:55:36;13.90;;;6.20;;
71646;SDS011;59706;45.634;11.704;2023-04-06T11:58:04;12.40;;;6.60;;
71646;SDS011;59706;45.634;11.704;2023-04-06T12:00:31;13.20;;;5.80;;
71646;SDS011;59706;45.634;11.704;2023-04-06T12:03:00;15.00;;;6.80;;
71646;SDS011;59706;45.634;11.704;2023-04-06T12:05:28;12.60;;;6.70;;
71646;SDS011;59706;45.634;11.704;2023-04-06T12:07:55;12.50;;;6.10;;
71646;SDS011;59706;45.634;11.704;2023-04-06T12:10:24;13.20;;;7.40;;
71646;SDS011;59706;45.634;11.704;2023-04-06T12:12:52;12.80;;;7.30;;
71646;SDS011;59706;45.634;11.704;2023-04-06T12:15:20;12.00;;;6.60;;
71646;SDS011;59706;45.634;11.704;2023-04-06T12:17:56;12.30;;;7.00;;
71646;SDS011;59706;45.634;11.704;2023-04-06T12:20:22;11.00;;;6.00;;
71646;SDS011;59706;45.634;11.704;2023-04-06T12:22:50;12.10;;;6.50;;
71646;SDS011;59706;45.634;11.704;2023-04-06T12:25:17;13.20;;;7.20;;
71646;SDS011;59706;45.634;11.704;2023-04-06T12:27:44;12.30;;;6.70;;
71646;SDS011;59706;45.634;11.704;2023-04-06T12:30:13;13.50;;;7.60;;
71646;SDS011;59706;45.634;11.704;2023-04-06T12:32:43;11.90;;;7.10;;
71646;SDS011;59706;45.634;11.704;2023-04-06T12:35:10;12.60;;;7.00;;
71646;SDS011;59706;45.634;11.704;2023-04-06T12:37:41;15.80;;;7.10;;
71646;SDS011;59706;45.634;11.704;2023-04-06T12:40:11;13.00;;;8.10;;
71646;SDS011;59706;45.634;11.704;2023-04-06T12:42:41;14.60;;;7.60;;
71646;SDS011;59706;45.634;11.704;2023-04-06T12:45:10;15.20;;;7.70;;
71646;SDS011;59706;45.634;11.704;2023-04-06T12:47:38;10.80;;;6.40;;
71646;SDS011;59706;45.634;11.704;2023-04-06T12:50:07;14.90;;;7.00;;
71646;SDS011;59706;45.634;11.704;2023-04-06T12:52:37;13.40;;;7.30;;
71646;SDS011;59706;45.634;11.704;2023-04-06T12:55:06;11.30;;;6.70;;
71646;SDS011;59706;45.634;11.704;2023-04-06T12:57:35;11.40;;;5.20;;
71646;SDS011;59706;45.634;11.704;2023-04-06T13:00:05;10.20;;;5.70;;
71646;SDS011;59706;45.634;11.704;2023-04-06T13:02:35;12.10;;;6.80;;
71646;SDS011;59706;45.634;11.704;2023-04-06T13:05:03;11.40;;;6.70;;
71646;SDS011;59706;45.634;11.704;2023-04-06T13:07:34;14.20;;;6.80;;
71646;SDS011;59706;45.634;11.704;2023-04-06T13:10:02;11.40;;;6.10;;
71646;SDS011;59706;45.634;11.704;2023-04-06T13:12:32;12.90;;;7.10;;
71646;SDS011;59706;45.634;11.704;2023-04-06T13:15:00;12.30;;;7.60;;
71646;SDS011;59706;45.634;11.704;2023-04-06T13:17:28;14.00;;;6.90;;
71646;SDS011;59706;45.634;11.704;2023-04-06T13:19:57;12.90;;;7.60;;
71646;SDS011;59706;45.634;11.704;2023-04-06T13:22:24;13.00;;;7.40;;
71646;SDS011;59706;45.634;11.704;2023-04-06T13:24:52;12.80;;;7.10;;
71646;SDS011;59706;45.634;11.704;2023-04-06T13:27:20;14.80;;;7.80;;
71646;SDS011;59706;45.634;11.704;2023-04-06T13:29:48;13.30;;;8.30;;
71646;SDS011;59706;45.634;11.704;2023-04-06T13:32:16;12.70;;;7.60;;
71646;SDS011;59706;45.634;11.704;2023-04-06T13:34:45;13.80;;;6.90;;
71646;SDS011;59706;45.634;11.704;2023-04-06T13:37:15;11.50;;;7.10;;
71646;SDS011;59706;45.634;11.704;2023-04-06T13:39:42;14.00;;;8.30;;
71646;SDS011;59706;45.634;11.704;2023-04-06T13:42:10;12.30;;;7.70;;
71646;SDS011;59706;45.634;11.704;2023-04-06T13:44:38;13.50;;;7.50;;
71646;SDS011;59706;45.634;11.704;2023-04-06T13:47:05;12.50;;;7.20;;
71646;SDS011;59706;45.634;11.704;2023-04-06T13:49:33;15.10;;;7.70;;
71646;SDS011;59706;45.634;11.704;2023-04-06T13:52:01;15.20;;;8.20;;
71646;SDS011;59706;45.634;11.704;2023-04-06T13:54:29;14.90;;;8.40;;
71646;SDS011;59706;45.634;11.704;2023-04-06T13:56:57;14.50;;;8.20;;
71646;SDS011;59706;45.634;11.704;2023-04-06T13:59:24;14.40;;;8.10;;
71646;SDS011;59706;45.634;11.704;2023-04-06T14:01:52;17.70;;;7.80;;
71646;SDS011;59706;45.634;11.704;2023-04-06T14:04:19;14.20;;;7.30;;
71646;SDS011;59706;45.634;11.704;2023-04-06T14:06:47;16.30;;;8.90;;
71646;SDS011;59706;45.634;11.704;2023-04-06T14:09:15;16.40;;;8.40;;
71646;SDS011;59706;45.634;11.704;2023-04-06T14:11:43;15.50;;;7.70;;
71646;SDS011;59706;45.634;11.704;2023-04-06T14:14:11;13.40;;;6.90;;
71646;SDS011;59706;45.634;11.704;2023-04-06T14:16:38;13.20;;;8.20;;
71646;SDS011;59706;45.634;11.704;2023-04-06T14:19:05;14.50;;;8.90;;
71646;SDS011;59706;45.634;11.704;2023-04-06T14:21:33;14.80;;;8.60;;
71646;SDS011;59706;45.634;11.704;2023-04-06T14:24:00;16.90;;;8.30;;
71646;SDS011;59706;45.634;11.704;2023-04-06T14:26:27;15.30;;;8.70;;
71646;SDS011;59706;45.634;11.704;2023-04-06T14:28:55;14.10;;;7.70;;
71646;SDS011;59706;45.634;11.704;2023-04-06T14:31:23;13.50;;;8.30;;
71646;SDS011;59706;45.634;11.704;2023-04-06T14:33:51;14.60;;;7.80;;